sensor_id;sensor_type;location;lat;lon;timestamp;P1;durP1;ratioP1;P2;durP2;ratioP2
41309;SDS011;27057;51.438;-0.010;2023-05-07T00:01:10;13.00;;;5.82;;
41309;SDS011;27057;51.438;-0.010;2023-05-07T00:03:40;14.25;;;7.35;;
41309;SDS011;27057;51.438;-0.010;2023-05-07T00:06:26;13.57;;;7.45;;
41309;SDS011;27057;51.438;-0.010;2023-05-07T00:08:58;10.65;;;6.40;;
41309;SDS011;27057;51.438;-0.010;2023-05-07T00:11:28;12.75;;;7.18;;
41309;SDS011;27057;51.438;-0.010;2023-05-07T00:13:55;16.15;;;6.82;;
41309;SDS011;27057;51.438;-0.010;2023-05-07T00:16:23;15.73;;;7.30;;
41309;SDS011;27057;51.438;-0.010;2023-05-07T00:18:52;15.63;;;7.78;;
41309;SDS011;27057;51.438;-0.010;2023-05-07T00:21:22;17.02;;;6.03;;
41309;SDS011;27057;51.438;-0.010;2023-05-07T00:23:56;16.45;;;5.63;;
41309;SDS011;27057;51.438;-0.010;2023-05-07T00:26:27;11.63;;;5.53;;
41309;SDS011;27057;51.438;-0.010;2023-05-07T00:29:04;8.07;;;5.22;;
41309;SDS011;27057;51.438;-0.010;2023-05-07T00:31:32;8.57;;;4.20;;
41309;SDS011;27057;51.438;-0.010;2023-05-07T00:33:59;7.38;;;4.70;;
41309;SDS011;27057;51.438;-0.010;2023-05-07T00:36:49;6.85;;;4.05;;
41309;SDS011;27057;51.438;-0.010;2023-05-07T00:39:17;6.82;;;3.53;;
41309;SDS011;27057;51.438;-0.010;2023-05-07T00:42:04;9.00;;;4.13;;
41309;SDS011;27057;51.438;-0.010;2023-05-07T00:44:38;7.00;;;3.88;;
41309;SDS011;27057;51.438;-0.010;2023-05-07T00:47:06;5.03;;;3.28;;
41309;SDS011;27057;51.438;-0.010;2023-05-07T00:49:39;5.78;;;3.70;;
41309;SDS011;27057;51.438;-0.010;2023-05-07T00:52:13;8.05;;;3.70;;
41309;SDS011;27057;51.438;-0.010;2023-05-07T00:54:43;5.75;;;3.60;;
41309;SDS011;27057;51.438;-0.010;2023-05-07T00:57:15;7.38;;;3.50;;
41309;SDS011;27057;51.438;-0.010;2023-05-07T00:59:52;10.13;;;4.63;;
41309;SDS011;27057;51.438;-0.010;2023-05-07T01:02:22;5.75;;;3.92;;
41309;SDS011;27057;51.438;-0.010;2023-05-07T01:04:50;6.30;;;3.90;;
41309;SDS011;27057;51.438;-0.010;2023-05-07T01:07:22;7.57;;;5.28;;
41309;SDS011;27057;51.438;-0.010;2023-05-07T01:09:50;6.82;;;4.20;;
41309;SDS011;27057;51.438;-0.010;2023-05-07T01:13:27;7.15;;;4.10;;
41309;SDS011;27057;51.438;-0.010;2023-05-07T01:15:55;7.45;;;4.07;;
41309;SDS011;27057;51.438;-0.010;2023-05-07T01:18:23;9.93;;;5.07;;
41309;SDS011;27057;51.438;-0.010;2023-05-07T01:20:54;9.35;;;4.18;;
41309;SDS011;27057;51.438;-0.010;2023-05-07T01:23:26;9.35;;;4.85;;
41309;SDS011;27057;51.438;-0.010;2023-05-07T01:25:57;7.40;;;4.43;;
41309;SDS011;27057;51.438;-0.010;2023-05-07T01:28:38;8.77;;;4.20;;
41309;SDS011;27057;51.438;-0.010;2023-05-07T01:31:06;12.13;;;4.53;;
41309;SDS011;27057;51.438;-0.010;2023-05-07T01:33:37;10.90;;;5.05;;
41309;SDS011;27057;51.438;-0.010;2023-05-07T01:36:07;8.98;;;4.68;;
41309;SDS011;27057;51.438;-0.010;2023-05-07T01:38:37;10.25;;;4.80;;
41309;SDS011;27057;51.438;-0.010;2023-05-07T01:41:09;13.18;;;5.18;;
41309;SDS011;27057;51.438;-0.010;2023-05-07T01:43:40;7.90;;;5.20;;
41309;SDS011;27057;51.438;-0.010;2023-05-07T01:46:12;8.60;;;5.30;;
41309;SDS011;27057;51.438;-0.010;2023-05-07T01:48:41;9.43;;;5.63;;
41309;SDS011;27057;51.438;-0.010;2023-05-07T01:51:13;11.68;;;5.35;;
41309;SDS011;27057;51.438;-0.010;2023-05-07T01:53:41;13.88;;;6.38;;
41309;SDS011;27057;51.438;-0.010;2023-05-07T01:56:12;10.88;;;6.10;;
41309;SDS011;27057;51.438;-0.010;2023-05-07T01:58:46;13.65;;;7.35;;
41309;SDS011;27057;51.438;-0.010;2023-05-07T02:01:17;10.15;;;5.85;;
41309;SDS011;27057;51.438;-0.010;2023-05-07T02:03:46;8.82;;;5.70;;
41309;SDS011;27057;51.438;-0.010;2023-05-07T02:06:29;10.38;;;5.93;;
41309;SDS011;27057;51.438;-0.010;2023-05-07T02:09:30;11.05;;;6.22;;
41309;SDS011;27057;51.438;-0.010;2023-05-07T02:12:08;11.40;;;6.47;;
41309;SDS011;27057;51.438;-0.010;2023-05-07T02:14:49;15.23;;;7.50;;
41309;SDS011;27057;51.438;-0.010;2023-05-07T02:17:21;13.32;;;6.75;;
41309;SDS011;27057;51.438;-0.010;2023-05-07T02:20:27;19.75;;;8.48;;
41309;SDS011;27057;51.438;-0.010;2023-05-07T02:24:32;22.27;;;9.07;;
41309;SDS011;27057;51.438;-0.010;2023-05-07T02:27:45;16.48;;;8.00;;
41309;SDS011;27057;51.438;-0.010;2023-05-07T02:31:10;14.70;;;9.02;;
41309;SDS011;27057;51.438;-0.010;2023-05-07T02:33:44;20.67;;;8.50;;
41309;SDS011;27057;51.438;-0.010;2023-05-07T02:36:26;18.73;;;10.25;;
41309;SDS011;27057;51.438;-0.010;2023-05-07T02:39:49;21.38;;;9.77;;
41309;SDS011;27057;51.438;-0.010;2023-05-07T02:42:27;21.15;;;8.75;;
41309;SDS011;27057;51.438;-0.010;2023-05-07T02:45:01;17.25;;;9.15;;
41309;SDS011;27057;51.438;-0.010;2023-05-07T02:47:39;15.85;;;9.10;;
41309;SDS011;27057;51.438;-0.010;2023-05-07T02:50:20;19.25;;;9.93;;
41309;SDS011;27057;51.438;-0.010;2023-05-07T02:52:48;18.63;;;10.30;;
41309;SDS011;27057;51.438;-0.010;2023-05-07T02:55:18;16.15;;;9.70;;
41309;SDS011;27057;51.438;-0.010;2023-05-07T02:57:46;17.38;;;10.52;;
41309;SDS011;27057;51.438;-0.010;2023-05-07T03:00:41;19.30;;;11.10;;
41309;SDS011;27057;51.438;-0.010;2023-05-07T03:03:36;18.92;;;10.68;;
41309;SDS011;27057;51.438;-0.010;2023-05-07T03:06:07;18.98;;;10.43;;
41309;SDS011;27057;51.438;-0.010;2023-05-07T03:08:42;19.98;;;10.90;;
41309;SDS011;27057;51.438;-0.010;2023-05-07T03:11:19;26.10;;;11.70;;
41309;SDS011;27057;51.438;-0.010;2023-05-07T03:13:53;19.83;;;12.32;;
41309;SDS011;27057;51.438;-0.010;2023-05-07T03:16:23;21.73;;;12.02;;
41309;SDS011;27057;51.438;-0.010;2023-05-07T03:19:08;23.52;;;12.18;;
41309;SDS011;27057;51.438;-0.010;2023-05-07T03:21:39;19.48;;;11.95;;
41309;SDS011;27057;51.438;-0.010;2023-05-07T03:24:18;20.48;;;12.25;;
41309;SDS011;27057;51.438;-0.010;2023-05-07T03:26:49;23.98;;;12.07;;
41309;SDS011;27057;51.438;-0.010;2023-05-07T03:29:16;25.00;;;12.52;;
41309;SDS011;27057;51.438;-0.010;2023-05-07T03:31:51;18.58;;;11.77;;
41309;SDS011;27057;51.438;-0.010;2023-05-07T03:34:19;24.83;;;13.02;;
41309;SDS011;27057;51.438;-0.010;2023-05-07T03:36:55;22.63;;;11.65;;
41309;SDS011;27057;51.438;-0.010;2023-05-07T03:39:47;18.95;;;11.20;;
41309;SDS011;27057;51.438;-0.010;2023-05-07T03:46:45;24.63;;;11.93;;
41309;SDS011;27057;51.438;-0.010;2023-05-07T03:49:25;20.42;;;10.88;;
41309;SDS011;27057;51.438;-0.010;2023-05-07T03:51:53;21.10;;;11.55;;
41309;SDS011;27057;51.438;-0.010;2023-05-07T03:54:29;22.60;;;10.98;;
41309;SDS011;27057;51.438;-0.010;2023-05-07T03:57:22;23.52;;;10.82;;
41309;SDS011;27057;51.438;-0.010;2023-05-07T03:59:51;20.30;;;10.90;;
41309;SDS011;27057;51.438;-0.010;2023-05-07T04:02:35;18.63;;;10.57;;
41309;SDS011;27057;51.438;-0.010;2023-05-07T04:05:06;20.85;;;10.88;;
41309;SDS011;27057;51.438;-0.010;2023-05-07T04:07:39;19.58;;;10.45;;
41309;SDS011;27057;51.438;-0.010;2023-05-07T04:10:53;18.88;;;10.38;;
41309;SDS011;27057;51.438;-0.010;2023-05-07T04:13:36;21.77;;;10.90;;
41309;SDS011;27057;51.438;-0.010;2023-05-07T04:16:20;19.63;;;10.38;;
41309;SDS011;27057;51.438;-0.010;2023-05-07T04:18:50;19.42;;;10.30;;
41309;SDS011;27057;51.438;-0.010;2023-05-07T04:21:18;23.08;;;10.98;;
41309;SDS011;27057;51.438;-0.010;2023-05-07T04:23:54;14.73;;;9.05;;
41309;SDS011;27057;51.438;-0.010;2023-05-07T04:26:40;20.05;;;10.80;;
41309;SDS011;27057;51.438;-0.010;2023-05-07T04:29:29;17.33;;;9.23;;
41309;SDS011;27057;51.438;-0.010;2023-05-07T04:31:57;18.80;;;10.15;;
41309;SDS011;27057;51.438;-0.010;2023-05-07T04:34:28;15.25;;;9.43;;
41309;SDS011;27057;51.438;-0.010;2023-05-07T04:36:59;15.68;;;9.43;;
41309;SDS011;27057;51.438;-0.010;2023-05-07T04:39:32;18.63;;;9.23;;
41309;SDS011;27057;51.438;-0.010;2023-05-07T04:46:06;16.17;;;8.88;;
41309;SDS011;27057;51.438;-0.010;2023-05-07T04:49:05;16.25;;;9.55;;
41309;SDS011;27057;51.438;-0.010;2023-05-07T04:51:58;23.05;;;11.13;;
41309;SDS011;27057;51.438;-0.010;2023-05-07T04:54:30;16.75;;;10.25;;
41309;SDS011;27057;51.438;-0.010;2023-05-07T04:56:59;21.48;;;9.98;;
41309;SDS011;27057;51.438;-0.010;2023-05-07T04:59:36;21.23;;;11.55;;
41309;SDS011;27057;51.438;-0.010;2023-05-07T05:02:04;17.50;;;10.77;;
41309;SDS011;27057;51.438;-0.010;2023-05-07T05:04:35;19.38;;;10.55;;
41309;SDS011;27057;51.438;-0.010;2023-05-07T05:07:04;18.98;;;11.55;;
41309;SDS011;27057;51.438;-0.010;2023-05-07T05:09:32;18.98;;;11.57;;
41309;SDS011;27057;51.438;-0.010;2023-05-07T05:12:00;17.85;;;9.63;;
41309;SDS011;27057;51.438;-0.010;2023-05-07T05:14:39;20.60;;;10.85;;
41309;SDS011;27057;51.438;-0.010;2023-05-07T05:17:46;18.13;;;10.73;;
41309;SDS011;27057;51.438;-0.010;2023-05-07T05:20:31;21.52;;;11.43;;
41309;SDS011;27057;51.438;-0.010;2023-05-07T05:23:18;25.10;;;11.27;;
41309;SDS011;27057;51.438;-0.010;2023-05-07T05:25:56;22.42;;;11.52;;
41309;SDS011;27057;51.438;-0.010;2023-05-07T05:28:38;22.67;;;11.57;;
41309;SDS011;27057;51.438;-0.010;2023-05-07T05:31:21;25.08;;;12.05;;
41309;SDS011;27057;51.438;-0.010;2023-05-07T05:33:50;28.80;;;11.95;;
41309;SDS011;27057;51.438;-0.010;2023-05-07T05:36:30;19.63;;;9.75;;
41309;SDS011;27057;51.438;-0.010;2023-05-07T05:39:01;25.98;;;11.68;;
41309;SDS011;27057;51.438;-0.010;2023-05-07T05:41:48;24.98;;;10.85;;
41309;SDS011;27057;51.438;-0.010;2023-05-07T05:44:42;25.23;;;11.82;;
41309;SDS011;27057;51.438;-0.010;2023-05-07T05:47:11;22.50;;;12.13;;
41309;SDS011;27057;51.438;-0.010;2023-05-07T05:49:52;21.27;;;11.00;;
41309;SDS011;27057;51.438;-0.010;2023-05-07T05:52:20;24.38;;;11.93;;
41309;SDS011;27057;51.438;-0.010;2023-05-07T05:54:54;19.80;;;9.30;;
41309;SDS011;27057;51.438;-0.010;2023-05-07T05:57:25;23.10;;;10.77;;
41309;SDS011;27057;51.438;-0.010;2023-05-07T06:00:01;29.13;;;10.95;;
41309;SDS011;27057;51.438;-0.010;2023-05-07T06:02:44;22.40;;;9.40;;
41309;SDS011;27057;51.438;-0.010;2023-05-07T06:05:43;19.10;;;10.48;;
41309;SDS011;27057;51.438;-0.010;2023-05-07T06:09:12;26.42;;;9.95;;
41309;SDS011;27057;51.438;-0.010;2023-05-07T06:12:22;21.45;;;10.05;;
41309;SDS011;27057;51.438;-0.010;2023-05-07T06:15:47;23.30;;;10.15;;
41309;SDS011;27057;51.438;-0.010;2023-05-07T06:18:16;20.83;;;10.63;;
41309;SDS011;27057;51.438;-0.010;2023-05-07T06:21:15;23.90;;;10.55;;
41309;SDS011;27057;51.438;-0.010;2023-05-07T06:23:45;19.70;;;9.48;;
41309;SDS011;27057;51.438;-0.010;2023-05-07T06:26:13;18.75;;;8.55;;
41309;SDS011;27057;51.438;-0.010;2023-05-07T06:29:09;18.70;;;8.82;;
41309;SDS011;27057;51.438;-0.010;2023-05-07T06:31:41;26.55;;;9.95;;
41309;SDS011;27057;51.438;-0.010;2023-05-07T06:34:10;25.42;;;10.63;;
41309;SDS011;27057;51.438;-0.010;2023-05-07T06:40:38;20.92;;;9.85;;
41309;SDS011;27057;51.438;-0.010;2023-05-07T06:43:06;17.90;;;9.07;;
41309;SDS011;27057;51.438;-0.010;2023-05-07T06:46:07;22.70;;;10.27;;
41309;SDS011;27057;51.438;-0.010;2023-05-07T06:49:40;19.55;;;9.70;;
41309;SDS011;27057;51.438;-0.010;2023-05-07T06:53:30;22.52;;;10.55;;
41309;SDS011;27057;51.438;-0.010;2023-05-07T06:56:03;22.48;;;10.95;;
41309;SDS011;27057;51.438;-0.010;2023-05-07T06:59:31;22.73;;;10.43;;
41309;SDS011;27057;51.438;-0.010;2023-05-07T07:02:40;22.27;;;10.73;;
41309;SDS011;27057;51.438;-0.010;2023-05-07T07:05:41;23.95;;;12.07;;
41309;SDS011;27057;51.438;-0.010;2023-05-07T07:09:01;25.25;;;11.60;;
41309;SDS011;27057;51.438;-0.010;2023-05-07T07:11:31;21.52;;;12.02;;
41309;SDS011;27057;51.438;-0.010;2023-05-07T07:14:09;20.77;;;11.63;;
41309;SDS011;27057;51.438;-0.010;2023-05-07T07:16:53;20.10;;;11.55;;
41309;SDS011;27057;51.438;-0.010;2023-05-07T07:19:23;23.52;;;10.07;;
41309;SDS011;27057;51.438;-0.010;2023-05-07T07:21:54;19.83;;;10.73;;
41309;SDS011;27057;51.438;-0.010;2023-05-07T07:24:32;22.15;;;11.15;;
41309;SDS011;27057;51.438;-0.010;2023-05-07T07:27:03;19.20;;;11.45;;
41309;SDS011;27057;51.438;-0.010;2023-05-07T07:29:33;23.30;;;11.75;;
41309;SDS011;27057;51.438;-0.010;2023-05-07T07:32:02;20.58;;;9.75;;
41309;SDS011;27057;51.438;-0.010;2023-05-07T07:34:36;23.60;;;11.60;;
41309;SDS011;27057;51.438;-0.010;2023-05-07T07:37:07;21.48;;;11.15;;
41309;SDS011;27057;51.438;-0.010;2023-05-07T07:39:36;18.80;;;10.75;;
41309;SDS011;27057;51.438;-0.010;2023-05-07T07:42:26;25.90;;;12.90;;
41309;SDS011;27057;51.438;-0.010;2023-05-07T07:45:11;23.77;;;11.80;;
41309;SDS011;27057;51.438;-0.010;2023-05-07T07:47:51;22.05;;;11.23;;
41309;SDS011;27057;51.438;-0.010;2023-05-07T07:50:31;20.83;;;10.35;;
41309;SDS011;27057;51.438;-0.010;2023-05-07T07:53:13;23.60;;;10.88;;
41309;SDS011;27057;51.438;-0.010;2023-05-07T07:55:51;22.17;;;10.30;;
41309;SDS011;27057;51.438;-0.010;2023-05-07T07:58:27;18.90;;;10.60;;
41309;SDS011;27057;51.438;-0.010;2023-05-07T08:01:15;23.98;;;10.45;;
41309;SDS011;27057;51.438;-0.010;2023-05-07T08:03:53;19.70;;;10.45;;
41309;SDS011;27057;51.438;-0.010;2023-05-07T08:06:25;22.05;;;9.80;;
41309;SDS011;27057;51.438;-0.010;2023-05-07T08:08:56;20.65;;;10.50;;
41309;SDS011;27057;51.438;-0.010;2023-05-07T08:11:24;18.55;;;9.98;;
41309;SDS011;27057;51.438;-0.010;2023-05-07T08:13:54;19.35;;;8.60;;
41309;SDS011;27057;51.438;-0.010;2023-05-07T08:16:24;20.25;;;10.57;;
41309;SDS011;27057;51.438;-0.010;2023-05-07T08:18:53;21.58;;;10.55;;
41309;SDS011;27057;51.438;-0.010;2023-05-07T08:21:25;22.88;;;11.23;;
41309;SDS011;27057;51.438;-0.010;2023-05-07T08:23:59;20.67;;;11.25;;
41309;SDS011;27057;51.438;-0.010;2023-05-07T08:26:28;16.63;;;8.90;;
41309;SDS011;27057;51.438;-0.010;2023-05-07T08:28:56;19.17;;;10.18;;
41309;SDS011;27057;51.438;-0.010;2023-05-07T08:31:24;16.83;;;9.98;;
41309;SDS011;27057;51.438;-0.010;2023-05-07T08:33:53;23.45;;;10.30;;
41309;SDS011;27057;51.438;-0.010;2023-05-07T08:36:23;16.98;;;9.40;;
41309;SDS011;27057;51.438;-0.010;2023-05-07T08:38:51;25.27;;;9.35;;
41309;SDS011;27057;51.438;-0.010;2023-05-07T08:41:20;16.48;;;9.77;;
41309;SDS011;27057;51.438;-0.010;2023-05-07T08:43:48;15.63;;;9.07;;
41309;SDS011;27057;51.438;-0.010;2023-05-07T08:46:18;14.45;;;7.90;;
41309;SDS011;27057;51.438;-0.010;2023-05-07T08:48:50;17.27;;;7.53;;
41309;SDS011;27057;51.438;-0.010;2023-05-07T08:51:19;10.82;;;6.60;;
41309;SDS011;27057;51.438;-0.010;2023-05-07T08:53:49;11.95;;;7.47;;
41309;SDS011;27057;51.438;-0.010;2023-05-07T08:56:24;10.93;;;7.28;;
41309;SDS011;27057;51.438;-0.010;2023-05-07T08:58:53;11.52;;;6.50;;
41309;SDS011;27057;51.438;-0.010;2023-05-07T09:01:34;12.48;;;6.32;;
41309;SDS011;27057;51.438;-0.010;2023-05-07T09:04:05;12.20;;;7.22;;
41309;SDS011;27057;51.438;-0.010;2023-05-07T09:06:34;13.52;;;6.57;;
41309;SDS011;27057;51.438;-0.010;2023-05-07T09:09:02;9.35;;;6.10;;
41309;SDS011;27057;51.438;-0.010;2023-05-07T09:11:33;8.52;;;5.90;;
41309;SDS011;27057;51.438;-0.010;2023-05-07T09:14:01;10.50;;;6.18;;
41309;SDS011;27057;51.438;-0.010;2023-05-07T09:16:34;8.48;;;5.20;;
41309;SDS011;27057;51.438;-0.010;2023-05-07T09:19:03;7.07;;;4.80;;
41309;SDS011;27057;51.438;-0.010;2023-05-07T09:21:35;11.05;;;6.22;;
41309;SDS011;27057;51.438;-0.010;2023-05-07T09:24:07;13.30;;;6.18;;
41309;SDS011;27057;51.438;-0.010;2023-05-07T09:26:38;9.45;;;5.63;;
41309;SDS011;27057;51.438;-0.010;2023-05-07T09:29:07;7.60;;;5.25;;
41309;SDS011;27057;51.438;-0.010;2023-05-07T09:31:38;8.52;;;5.28;;
41309;SDS011;27057;51.438;-0.010;2023-05-07T09:34:08;7.80;;;4.57;;
41309;SDS011;27057;51.438;-0.010;2023-05-07T09:36:38;6.88;;;4.40;;
41309;SDS011;27057;51.438;-0.010;2023-05-07T09:39:13;8.25;;;4.93;;
41309;SDS011;27057;51.438;-0.010;2023-05-07T09:41:44;7.53;;;5.28;;
41309;SDS011;27057;51.438;-0.010;2023-05-07T09:44:19;8.52;;;5.43;;
41309;SDS011;27057;51.438;-0.010;2023-05-07T09:46:52;18.45;;;6.20;;
41309;SDS011;27057;51.438;-0.010;2023-05-07T09:49:36;8.82;;;4.85;;
41309;SDS011;27057;51.438;-0.010;2023-05-07T09:52:08;8.63;;;4.57;;
41309;SDS011;27057;51.438;-0.010;2023-05-07T09:54:43;8.73;;;4.68;;
41309;SDS011;27057;51.438;-0.010;2023-05-07T09:57:18;6.00;;;3.95;;
41309;SDS011;27057;51.438;-0.010;2023-05-07T09:59:51;9.98;;;5.72;;
41309;SDS011;27057;51.438;-0.010;2023-05-07T10:02:20;8.70;;;4.57;;
41309;SDS011;27057;51.438;-0.010;2023-05-07T10:04:51;8.32;;;4.43;;
41309;SDS011;27057;51.438;-0.010;2023-05-07T10:07:26;11.00;;;4.97;;
41309;SDS011;27057;51.438;-0.010;2023-05-07T10:10:02;6.30;;;4.63;;
41309;SDS011;27057;51.438;-0.010;2023-05-07T10:12:35;14.07;;;5.60;;
41309;SDS011;27057;51.438;-0.010;2023-05-07T10:15:12;8.13;;;5.33;;
41309;SDS011;27057;51.438;-0.010;2023-05-07T10:17:45;7.68;;;5.05;;
41309;SDS011;27057;51.438;-0.010;2023-05-07T10:20:14;6.72;;;4.60;;
41309;SDS011;27057;51.438;-0.010;2023-05-07T10:22:45;8.93;;;4.85;;
41309;SDS011;27057;51.438;-0.010;2023-05-07T10:25:18;10.52;;;4.65;;
41309;SDS011;27057;51.438;-0.010;2023-05-07T10:28:06;5.72;;;4.38;;
41309;SDS011;27057;51.438;-0.010;2023-05-07T10:33:39;6.85;;;5.00;;
41309;SDS011;27057;51.438;-0.010;2023-05-07T10:36:10;10.73;;;5.32;;
41309;SDS011;27057;51.438;-0.010;2023-05-07T10:38:38;9.50;;;4.60;;
41309;SDS011;27057;51.438;-0.010;2023-05-07T10:41:07;5.97;;;4.47;;
41309;SDS011;27057;51.438;-0.010;2023-05-07T10:43:42;8.18;;;5.25;;
41309;SDS011;27057;51.438;-0.010;2023-05-07T10:46:28;6.93;;;4.30;;
41309;SDS011;27057;51.438;-0.010;2023-05-07T10:49:08;6.95;;;4.60;;
41309;SDS011;27057;51.438;-0.010;2023-05-07T10:51:47;7.78;;;4.55;;
41309;SDS011;27057;51.438;-0.010;2023-05-07T11:00:59;7.05;;;4.50;;
41309;SDS011;27057;51.438;-0.010;2023-05-07T11:15:36;9.57;;;4.03;;
41309;SDS011;27057;51.438;-0.010;2023-05-07T11:18:15;6.20;;;4.20;;
41309;SDS011;27057;51.438;-0.010;2023-05-07T11:20:54;7.60;;;4.25;;
41309;SDS011;27057;51.438;-0.010;2023-05-07T11:26:16;6.60;;;4.20;;
41309;SDS011;27057;51.438;-0.010;2023-05-07T11:28:44;6.63;;;4.55;;
41309;SDS011;27057;51.438;-0.010;2023-05-07T11:31:12;6.38;;;4.05;;
41309;SDS011;27057;51.438;-0.010;2023-05-07T11:33:40;7.45;;;4.10;;
41309;SDS011;27057;51.438;-0.010;2023-05-07T11:36:14;5.65;;;3.95;;
41309;SDS011;27057;51.438;-0.010;2023-05-07T11:38:46;9.20;;;4.75;;
41309;SDS011;27057;51.438;-0.010;2023-05-07T11:41:15;8.55;;;4.82;;
41309;SDS011;27057;51.438;-0.010;2023-05-07T11:43:56;8.57;;;4.18;;
41309;SDS011;27057;51.438;-0.010;2023-05-07T11:46:24;8.32;;;5.65;;
41309;SDS011;27057;51.438;-0.010;2023-05-07T11:48:53;8.02;;;4.50;;
41309;SDS011;27057;51.438;-0.010;2023-05-07T11:51:22;8.65;;;4.53;;
41309;SDS011;27057;51.438;-0.010;2023-05-07T11:53:53;8.77;;;4.07;;
41309;SDS011;27057;51.438;-0.010;2023-05-07T11:56:20;6.30;;;3.58;;
41309;SDS011;27057;51.438;-0.010;2023-05-07T11:58:48;10.82;;;3.85;;
41309;SDS011;27057;51.438;-0.010;2023-05-07T12:01:17;7.70;;;3.28;;
41309;SDS011;27057;51.438;-0.010;2023-05-07T12:03:45;5.90;;;3.28;;
41309;SDS011;27057;51.438;-0.010;2023-05-07T12:06:16;6.63;;;4.00;;
41309;SDS011;27057;51.438;-0.010;2023-05-07T12:08:44;5.68;;;4.13;;
41309;SDS011;27057;51.438;-0.010;2023-05-07T12:11:23;6.45;;;3.63;;
41309;SDS011;27057;51.438;-0.010;2023-05-07T12:13:54;5.70;;;4.18;;
41309;SDS011;27057;51.438;-0.010;2023-05-07T12:16:25;8.27;;;3.72;;
41309;SDS011;27057;51.438;-0.010;2023-05-07T12:18:53;5.07;;;3.63;;
41309;SDS011;27057;51.438;-0.010;2023-05-07T12:21:22;7.25;;;3.78;;
41309;SDS011;27057;51.438;-0.010;2023-05-07T12:23:51;6.60;;;4.05;;
41309;SDS011;27057;51.438;-0.010;2023-05-07T12:26:19;11.45;;;5.05;;
41309;SDS011;27057;51.438;-0.010;2023-05-07T12:28:53;10.82;;;5.38;;
41309;SDS011;27057;51.438;-0.010;2023-05-07T12:31:21;13.95;;;5.80;;
41309;SDS011;27057;51.438;-0.010;2023-05-07T12:33:48;8.80;;;4.80;;
41309;SDS011;27057;51.438;-0.010;2023-05-07T12:36:16;8.75;;;6.13;;
41309;SDS011;27057;51.438;-0.010;2023-05-07T12:38:44;7.97;;;5.68;;
41309;SDS011;27057;51.438;-0.010;2023-05-07T12:41:11;8.25;;;6.00;;
41309;SDS011;27057;51.438;-0.010;2023-05-07T12:43:39;7.90;;;5.45;;
41309;SDS011;27057;51.438;-0.010;2023-05-07T12:46:10;11.32;;;4.32;;
41309;SDS011;27057;51.438;-0.010;2023-05-07T12:48:43;7.07;;;4.35;;
41309;SDS011;27057;51.438;-0.010;2023-05-07T12:51:13;6.40;;;3.70;;
41309;SDS011;27057;51.438;-0.010;2023-05-07T12:53:42;5.63;;;4.15;;
41309;SDS011;27057;51.438;-0.010;2023-05-07T12:56:09;9.10;;;3.72;;
41309;SDS011;27057;51.438;-0.010;2023-05-07T12:58:37;5.70;;;3.00;;
41309;SDS011;27057;51.438;-0.010;2023-05-07T13:01:05;5.53;;;3.95;;
41309;SDS011;27057;51.438;-0.010;2023-05-07T13:03:37;4.55;;;2.85;;
41309;SDS011;27057;51.438;-0.010;2023-05-07T13:06:08;5.88;;;3.58;;
41309;SDS011;27057;51.438;-0.010;2023-05-07T13:08:37;7.22;;;5.10;;
41309;SDS011;27057;51.438;-0.010;2023-05-07T13:11:08;5.88;;;4.30;;
41309;SDS011;27057;51.438;-0.010;2023-05-07T13:13:37;5.43;;;3.90;;
41309;SDS011;27057;51.438;-0.010;2023-05-07T13:16:07;7.28;;;4.15;;
41309;SDS011;27057;51.438;-0.010;2023-05-07T13:18:35;14.95;;;4.75;;
41309;SDS011;27057;51.438;-0.010;2023-05-07T13:21:04;6.03;;;4.10;;
41309;SDS011;27057;51.438;-0.010;2023-05-07T13:23:32;7.82;;;3.40;;
41309;SDS011;27057;51.438;-0.010;2023-05-07T13:26:00;6.28;;;3.20;;
41309;SDS011;27057;51.438;-0.010;2023-05-07T13:28:37;5.88;;;3.10;;
41309;SDS011;27057;51.438;-0.010;2023-05-07T13:31:04;5.60;;;4.15;;
41309;SDS011;27057;51.438;-0.010;2023-05-07T13:33:32;8.30;;;3.60;;
41309;SDS011;27057;51.438;-0.010;2023-05-07T13:35:59;3.15;;;2.85;;
41309;SDS011;27057;51.438;-0.010;2023-05-07T13:38:27;7.32;;;3.28;;
41309;SDS011;27057;51.438;-0.010;2023-05-07T13:40:54;7.88;;;3.42;;
41309;SDS011;27057;51.438;-0.010;2023-05-07T13:43:22;6.15;;;4.22;;
41309;SDS011;27057;51.438;-0.010;2023-05-07T13:45:49;7.22;;;4.30;;
41309;SDS011;27057;51.438;-0.010;2023-05-07T13:48:16;6.60;;;4.50;;
41309;SDS011;27057;51.438;-0.010;2023-05-07T13:50:44;8.63;;;3.92;;
41309;SDS011;27057;51.438;-0.010;2023-05-07T13:53:11;7.43;;;3.47;;
41309;SDS011;27057;51.438;-0.010;2023-05-07T13:55:39;6.88;;;3.55;;
41309;SDS011;27057;51.438;-0.010;2023-05-07T13:58:06;8.25;;;4.13;;
41309;SDS011;27057;51.438;-0.010;2023-05-07T14:00:33;3.70;;;2.75;;
41309;SDS011;27057;51.438;-0.010;2023-05-07T14:03:01;7.05;;;2.85;;
41309;SDS011;27057;51.438;-0.010;2023-05-07T14:05:29;9.85;;;3.47;;
41309;SDS011;27057;51.438;-0.010;2023-05-07T14:07:59;5.50;;;2.72;;
41309;SDS011;27057;51.438;-0.010;2023-05-07T14:10:26;5.75;;;2.83;;
41309;SDS011;27057;51.438;-0.010;2023-05-07T14:12:54;3.80;;;2.38;;
41309;SDS011;27057;51.438;-0.010;2023-05-07T14:15:21;3.20;;;2.38;;
41309;SDS011;27057;51.438;-0.010;2023-05-07T14:17:49;6.00;;;2.85;;
41309;SDS011;27057;51.438;-0.010;2023-05-07T14:20:16;3.13;;;2.53;;
41309;SDS011;27057;51.438;-0.010;2023-05-07T14:22:44;4.45;;;2.85;;
41309;SDS011;27057;51.438;-0.010;2023-05-07T14:25:13;4.30;;;2.70;;
41309;SDS011;27057;51.438;-0.010;2023-05-07T14:27:43;3.55;;;2.75;;
41309;SDS011;27057;51.438;-0.010;2023-05-07T14:30:10;6.80;;;2.72;;
41309;SDS011;27057;51.438;-0.010;2023-05-07T14:32:39;6.38;;;3.25;;
41309;SDS011;27057;51.438;-0.010;2023-05-07T14:35:07;3.20;;;2.05;;
41309;SDS011;27057;51.438;-0.010;2023-05-07T14:37:35;3.90;;;2.88;;
41309;SDS011;27057;51.438;-0.010;2023-05-07T14:40:03;4.05;;;2.78;;
41309;SDS011;27057;51.438;-0.010;2023-05-07T14:42:30;3.30;;;1.88;;
41309;SDS011;27057;51.438;-0.010;2023-05-07T14:44:58;3.22;;;2.28;;
41309;SDS011;27057;51.438;-0.010;2023-05-07T14:47:25;3.90;;;2.45;;
41309;SDS011;27057;51.438;-0.010;2023-05-07T14:49:54;3.78;;;2.72;;
41309;SDS011;27057;51.438;-0.010;2023-05-07T14:52:21;5.20;;;2.20;;
41309;SDS011;27057;51.438;-0.010;2023-05-07T14:54:49;5.30;;;1.95;;
41309;SDS011;27057;51.438;-0.010;2023-05-07T14:57:17;5.40;;;2.13;;
41309;SDS011;27057;51.438;-0.010;2023-05-07T14:59:45;3.50;;;2.15;;
41309;SDS011;27057;51.438;-0.010;2023-05-07T15:02:13;5.47;;;2.00;;
41309;SDS011;27057;51.438;-0.010;2023-05-07T15:04:42;6.13;;;2.65;;
41309;SDS011;27057;51.438;-0.010;2023-05-07T15:07:13;6.30;;;2.35;;
41309;SDS011;27057;51.438;-0.010;2023-05-07T15:09:42;3.42;;;2.20;;
41309;SDS011;27057;51.438;-0.010;2023-05-07T15:12:11;3.95;;;2.58;;
41309;SDS011;27057;51.438;-0.010;2023-05-07T15:14:39;3.47;;;2.17;;
41309;SDS011;27057;51.438;-0.010;2023-05-07T15:17:08;4.35;;;2.47;;
41309;SDS011;27057;51.438;-0.010;2023-05-07T15:19:35;2.35;;;1.67;;
41309;SDS011;27057;51.438;-0.010;2023-05-07T15:22:03;2.92;;;2.00;;
41309;SDS011;27057;51.438;-0.010;2023-05-07T15:24:30;2.85;;;1.90;;
41309;SDS011;27057;51.438;-0.010;2023-05-07T15:26:58;2.88;;;2.17;;
41309;SDS011;27057;51.438;-0.010;2023-05-07T15:29:26;5.50;;;2.00;;
41309;SDS011;27057;51.438;-0.010;2023-05-07T15:31:55;3.17;;;2.15;;
41309;SDS011;27057;51.438;-0.010;2023-05-07T15:34:24;4.25;;;1.90;;
41309;SDS011;27057;51.438;-0.010;2023-05-07T15:36:51;2.00;;;1.80;;
41309;SDS011;27057;51.438;-0.010;2023-05-07T15:39:19;2.30;;;1.95;;
41309;SDS011;27057;51.438;-0.010;2023-05-07T15:41:50;2.00;;;1.67;;
41309;SDS011;27057;51.438;-0.010;2023-05-07T15:44:28;3.78;;;2.13;;
41309;SDS011;27057;51.438;-0.010;2023-05-07T15:46:58;3.03;;;1.60;;